createdAt,value
2023-04-23T00:00:34.555Z,17.80
2023-04-23T00:03:36.771Z,18.40
2023-04-23T00:06:23.652Z,16.90
2023-04-23T00:09:12.716Z,17.65
2023-04-23T00:12:04.955Z,17.05
2023-04-23T00:14:52.283Z,21.38
2023-04-23T00:17:38.681Z,18.42
2023-04-23T00:20:25.490Z,18.90
2023-04-23T00:23:11.803Z,19.27
2023-04-23T00:25:59.146Z,19.73
2023-04-23T00:28:45.798Z,18.80
2023-04-23T00:31:33.268Z,19.30
2023-04-23T00:34:19.862Z,19.58
2023-04-23T00:37:07.131Z,19.05
2023-04-23T00:39:53.627Z,18.02
2023-04-23T00:42:40.818Z,20.48
2023-04-23T00:45:27.674Z,18.85
2023-04-23T00:48:14.824Z,18.45
2023-04-23T00:51:06.110Z,19.08
2023-04-23T00:53:52.884Z,21.33
2023-04-23T00:56:39.240Z,17.55
2023-04-23T00:59:26.187Z,20.27
2023-04-23T01:02:14.659Z,18.75
2023-04-23T01:05:02.682Z,18.08
2023-04-23T01:07:49.459Z,22.70
2023-04-23T01:10:36.551Z,19.90
2023-04-23T01:13:23.391Z,18.50
2023-04-23T01:16:11.721Z,21.25
2023-04-23T01:18:58.898Z,21.00
2023-04-23T01:21:49.273Z,21.17
2023-04-23T01:24:36.960Z,21.88
2023-04-23T01:27:25.333Z,23.15
2023-04-23T01:30:12.616Z,21.52
2023-04-23T01:32:59.613Z,17.75
2023-04-23T01:35:46.640Z,22.15
2023-04-23T01:38:34.986Z,23.38
2023-04-23T01:41:21.900Z,20.13
2023-04-23T01:44:09.002Z,22.48
2023-04-23T01:46:55.414Z,20.40
2023-04-23T01:49:43.189Z,21.48
2023-04-23T01:52:30.627Z,19.65
2023-04-23T01:55:19.477Z,24.45
2023-04-23T01:58:06.671Z,22.77
2023-04-23T02:00:55.205Z,24.65
2023-04-23T02:03:41.963Z,25.45
2023-04-23T02:06:28.752Z,23.05
2023-04-23T02:09:14.940Z,25.90
2023-04-23T02:12:02.189Z,21.70
2023-04-23T02:14:48.679Z,25.75
2023-04-23T02:17:36.565Z,28.80
2023-04-23T02:20:23.225Z,26.40
2023-04-23T02:23:10.009Z,24.83
2023-04-23T02:25:56.555Z,25.52
2023-04-23T02:28:44.353Z,23.23
2023-04-23T02:31:32.081Z,24.13
2023-04-23T02:34:19.617Z,24.95
2023-04-23T02:37:05.684Z,24.65
2023-04-23T02:39:54.270Z,27.08
2023-04-23T02:42:43.255Z,26.67
2023-04-23T02:45:30.908Z,23.08
2023-04-23T02:48:18.364Z,26.58
2023-04-23T02:51:07.502Z,24.23
2023-04-23T02:53:53.742Z,20.50
2023-04-23T02:56:43.411Z,27.10
2023-04-23T02:59:29.629Z,28.73
2023-04-23T03:02:16.963Z,24.60
2023-04-23T03:05:03.927Z,22.63
2023-04-23T03:07:50.671Z,27.45
2023-04-23T03:10:37.162Z,28.30
2023-04-23T03:13:24.470Z,25.88
2023-04-23T03:16:11.729Z,24.48
2023-04-23T03:18:59.770Z,28.13
2023-04-23T03:21:46.471Z,27.48
2023-04-23T03:24:34.082Z,25.50
2023-04-23T03:27:20.782Z,26.35
2023-04-23T03:30:09.463Z,26.73
2023-04-23T03:32:57.341Z,22.73
2023-04-23T03:35:47.033Z,28.38
2023-04-23T03:38:39.010Z,26.75
2023-04-23T03:41:26.616Z,25.95
2023-04-23T03:44:13.830Z,25.67
2023-04-23T03:47:05.605Z,28.17
2023-04-23T03:49:53.296Z,26.75
2023-04-23T03:52:40.092Z,28.58
2023-04-23T03:58:18.468Z,31.27
2023-04-23T04:01:06.071Z,27.90
2023-04-23T04:03:52.713Z,27.60
2023-04-23T04:06:38.954Z,27.83
2023-04-23T04:09:25.587Z,29.50
2023-04-23T04:12:12.284Z,31.33
2023-04-23T04:14:58.758Z,27.17
2023-04-23T04:17:46.080Z,30.08
2023-04-23T04:20:32.281Z,28.60
2023-04-23T04:23:18.109Z,26.20
2023-04-23T04:26:04.964Z,32.08
2023-04-23T04:28:51.525Z,30.15
2023-04-23T04:31:39.030Z,28.52
2023-04-23T04:34:28.625Z,30.08
2023-04-23T04:40:02.698Z,37.80
2023-04-23T04:42:50.049Z,26.25
2023-04-23T04:45:35.967Z,28.10
2023-04-23T04:48:22.496Z,28.98
2023-04-23T04:51:08.646Z,27.58
2023-04-23T04:53:55.349Z,27.10
2023-04-23T04:56:41.855Z,26.20
2023-04-23T04:59:28.377Z,23.80
2023-04-23T05:02:14.574Z,26.05
2023-04-23T05:05:01.652Z,25.17
2023-04-23T05:07:48.370Z,26.75
2023-04-23T05:10:34.729Z,24.17
2023-04-23T05:13:21.080Z,26.40
2023-04-23T05:16:07.374Z,28.70
2023-04-23T05:18:53.448Z,26.90
2023-04-23T05:21:39.808Z,25.48
2023-04-23T05:24:25.561Z,28.40
2023-04-23T05:27:11.945Z,25.05
2023-04-23T05:29:59.602Z,23.67
2023-04-23T05:32:46.080Z,27.52
2023-04-23T05:35:32.110Z,24.08
2023-04-23T05:38:18.388Z,24.52
2023-04-23T05:41:04.464Z,24.65
2023-04-23T05:43:50.942Z,22.48
2023-04-23T05:46:37.435Z,24.27
2023-04-23T05:49:23.789Z,23.90
2023-04-23T05:52:09.701Z,24.15
2023-04-23T05:54:56.061Z,23.70
2023-04-23T05:57:42.036Z,21.00
2023-04-23T06:00:29.166Z,21.45
2023-04-23T06:03:15.237Z,18.80
2023-04-23T06:06:01.427Z,20.60
2023-04-23T06:08:47.630Z,24.75
2023-04-23T06:11:33.574Z,21.30
2023-04-23T06:14:20.907Z,17.73
2023-04-23T06:17:07.582Z,19.80
2023-04-23T06:19:53.236Z,26.35
2023-04-23T06:22:39.388Z,22.08
2023-04-23T06:25:25.983Z,21.15
2023-04-23T06:28:12.384Z,19.73
2023-04-23T06:31:11.863Z,15.65
2023-04-23T06:33:58.578Z,18.98
2023-04-23T06:36:44.608Z,16.98
2023-04-23T06:39:30.875Z,18.58
2023-04-23T06:42:17.011Z,18.50
2023-04-23T06:45:09.348Z,16.10
2023-04-23T06:47:55.388Z,16.92
2023-04-23T06:50:41.960Z,18.65
2023-04-23T06:53:27.743Z,16.40
2023-04-23T06:56:15.223Z,16.83
2023-04-23T06:59:02.463Z,16.85
2023-04-23T07:01:50.494Z,14.68
2023-04-23T07:04:37.059Z,19.52
2023-04-23T07:07:25.039Z,16.05
2023-04-23T07:10:12.649Z,26.60
2023-04-23T07:12:59.343Z,15.40
2023-04-23T07:15:46.571Z,22.52
2023-04-23T07:18:33.380Z,17.13
2023-04-23T07:21:19.607Z,16.25
2023-04-23T07:24:09.017Z,14.50
2023-04-23T07:26:55.446Z,14.23
2023-04-23T07:29:42.150Z,16.92
2023-04-23T07:32:28.513Z,18.27
2023-04-23T07:35:15.656Z,15.50
2023-04-23T07:38:01.749Z,13.38
2023-04-23T07:40:48.661Z,16.05
2023-04-23T07:43:34.912Z,14.30
2023-04-23T07:46:21.477Z,17.05
2023-04-23T07:49:08.319Z,14.93
2023-04-23T07:51:56.078Z,15.57
2023-04-23T07:54:42.525Z,13.43
2023-04-23T07:57:29.377Z,15.65
2023-04-23T08:00:16.880Z,13.88
2023-04-23T08:03:06.448Z,11.50
2023-04-23T08:05:53.186Z,13.48
2023-04-23T08:08:39.865Z,13.75
2023-04-23T08:11:25.900Z,14.48
2023-04-23T08:14:12.323Z,15.52
2023-04-23T08:16:58.546Z,13.45
2023-04-23T08:19:45.478Z,15.65
2023-04-23T08:22:31.827Z,11.65
2023-04-23T08:25:18.358Z,15.10
2023-04-23T08:28:05.118Z,13.88
2023-04-23T08:30:51.829Z,14.52
2023-04-23T08:33:38.223Z,12.80
2023-04-23T08:36:26.856Z,30.02
2023-04-23T08:39:13.726Z,13.27
2023-04-23T08:42:07.776Z,13.02
2023-04-23T08:44:55.717Z,11.15
2023-04-23T08:47:46.020Z,11.07
2023-04-23T08:50:32.081Z,20.80
2023-04-23T08:53:20.082Z,12.52
2023-04-23T08:56:08.384Z,9.15
2023-04-23T08:58:57.106Z,7.97
2023-04-23T09:01:43.118Z,7.82
2023-04-23T09:04:31.802Z,9.25
2023-04-23T09:07:18.729Z,9.55
2023-04-23T09:10:07.770Z,8.20
2023-04-23T09:12:54.748Z,9.90
2023-04-23T09:15:43.841Z,11.20
2023-04-23T09:18:29.751Z,8.90
2023-04-23T09:21:16.410Z,9.90
2023-04-23T09:24:05.992Z,7.28
2023-04-23T09:29:39.668Z,11.60
2023-04-23T09:32:37.870Z,6.28
2023-04-23T09:35:27.851Z,8.48
2023-04-23T09:38:16.210Z,9.73
2023-04-23T09:41:25.916Z,9.98
2023-04-23T09:44:14.221Z,8.65
2023-04-23T09:47:14.957Z,9.85
2023-04-23T09:50:02.071Z,10.70
2023-04-23T09:52:55.342Z,9.80
2023-04-23T09:55:43.948Z,9.18
2023-04-23T09:58:31.026Z,6.88
2023-04-23T10:01:18.698Z,9.73
2023-04-23T10:04:05.646Z,8.18
2023-04-23T10:07:13.800Z,6.13
2023-04-23T10:10:03.831Z,9.20
2023-04-23T10:12:55.362Z,7.85
2023-04-23T10:15:42.481Z,12.25
2023-04-23T10:18:31.425Z,7.93
2023-04-23T10:21:18.039Z,7.72
2023-04-23T10:24:06.575Z,6.95
2023-04-23T10:26:54.432Z,10.13
2023-04-23T10:29:42.565Z,9.52
2023-04-23T10:32:29.343Z,7.88
2023-04-23T10:35:16.446Z,9.68
2023-04-23T10:38:02.753Z,7.40
2023-04-23T10:40:51.568Z,6.97
2023-04-23T10:43:37.524Z,7.57
2023-04-23T10:46:29.212Z,7.13
2023-04-23T10:49:16.608Z,7.70
2023-04-23T10:52:19.555Z,5.55
2023-04-23T10:55:17.500Z,6.03
2023-04-23T10:58:05.502Z,7.68
2023-04-23T11:00:53.881Z,5.68
2023-04-23T11:03:44.224Z,15.93
2023-04-23T11:06:49.500Z,13.63
2023-04-23T11:09:41.028Z,8.13
2023-04-23T11:12:27.825Z,9.70
2023-04-23T11:15:16.281Z,5.90
2023-04-23T11:18:02.588Z,6.78
2023-04-23T11:20:50.388Z,7.32
2023-04-23T11:23:36.858Z,5.60
2023-04-23T11:26:23.487Z,7.30
2023-04-23T11:29:12.584Z,7.72
2023-04-23T11:32:02.932Z,9.97
2023-04-23T11:34:50.657Z,6.35
2023-04-23T11:37:41.692Z,6.07
2023-04-23T11:43:21.376Z,5.68
2023-04-23T11:46:07.278Z,4.72
2023-04-23T11:48:53.806Z,6.70
2023-04-23T11:51:44.485Z,6.22
2023-04-23T11:54:31.512Z,8.82
2023-04-23T11:57:17.410Z,11.32
2023-04-23T12:00:16.296Z,5.97
2023-04-23T12:03:04.306Z,6.60
2023-04-23T12:05:51.716Z,7.03
2023-04-23T12:08:40.387Z,5.28
2023-04-23T12:11:27.123Z,6.15
2023-04-23T12:14:14.872Z,7.38
2023-04-23T12:17:11.297Z,6.63
2023-04-23T12:19:58.335Z,5.45
2023-04-23T12:22:44.708Z,5.13
2023-04-23T12:25:33.368Z,5.47
2023-04-23T12:28:23.637Z,10.30
2023-04-23T12:31:10.650Z,6.60
2023-04-23T12:34:06.933Z,8.75
2023-04-23T12:36:55.519Z,7.78
2023-04-23T12:39:41.833Z,7.10
2023-04-23T12:42:27.883Z,7.72
2023-04-23T12:45:14.608Z,5.65
2023-04-23T12:48:00.732Z,5.93
2023-04-23T12:50:47.761Z,5.35
2023-04-23T12:53:33.673Z,6.82
2023-04-23T12:56:20.742Z,6.28
2023-04-23T12:59:07.534Z,6.03
2023-04-23T13:01:54.355Z,8.40
2023-04-23T13:04:40.342Z,6.10
2023-04-23T13:07:27.030Z,4.57
2023-04-23T13:10:13.041Z,5.55
2023-04-23T13:12:59.609Z,5.35
2023-04-23T13:15:45.643Z,7.47
2023-04-23T13:18:32.465Z,4.70
2023-04-23T13:21:19.376Z,5.35
2023-04-23T13:24:06.022Z,7.32
2023-04-23T13:26:52.039Z,7.57
2023-04-23T13:29:40.549Z,8.93
2023-04-23T13:32:31.984Z,5.28
2023-04-23T13:35:19.150Z,10.90
2023-04-23T13:38:05.606Z,7.05
2023-04-23T13:40:53.099Z,16.38
2023-04-23T13:43:39.533Z,17.75
2023-04-23T13:46:27.175Z,11.30
2023-04-23T13:49:13.815Z,12.25
2023-04-23T13:52:04.431Z,4.10
2023-04-23T13:54:51.002Z,6.00
2023-04-23T13:57:38.565Z,4.22
2023-04-23T14:00:27.889Z,7.72
2023-04-23T14:03:14.541Z,6.20
2023-04-23T14:06:02.537Z,9.90
2023-04-23T14:08:49.234Z,7.75
2023-04-23T14:11:36.152Z,8.68
2023-04-23T14:14:24.102Z,7.18
2023-04-23T14:17:10.360Z,5.60
2023-04-23T14:19:56.696Z,6.00
2023-04-23T14:22:43.099Z,6.95
2023-04-23T14:25:31.536Z,7.75
2023-04-23T14:28:38.387Z,5.47
2023-04-23T14:31:24.626Z,3.00
2023-04-23T14:34:11.822Z,6.60
2023-04-23T14:36:58.296Z,4.15
2023-04-23T14:39:44.702Z,7.80
2023-04-23T14:42:31.820Z,4.97
2023-04-23T14:45:19.032Z,4.60
2023-04-23T14:48:05.763Z,4.40
2023-04-23T14:50:51.933Z,5.82
2023-04-23T14:53:38.467Z,5.40
2023-04-23T14:56:24.820Z,3.92
2023-04-23T14:59:11.166Z,3.88
2023-04-23T15:01:57.220Z,3.25
2023-04-23T15:04:43.584Z,3.60
2023-04-23T15:07:31.859Z,9.57
2023-04-23T15:10:18.981Z,5.70
2023-04-23T15:13:37.657Z,3.10
2023-04-23T15:16:47.305Z,7.00
2023-04-23T15:19:34.666Z,5.13
2023-04-23T15:22:21.019Z,7.32
2023-04-23T15:25:07.444Z,5.25
2023-04-23T15:27:57.978Z,8.50
2023-04-23T15:30:45.004Z,6.57
2023-04-23T15:33:31.590Z,10.07
2023-04-23T15:36:17.691Z,9.68
2023-04-23T15:39:03.974Z,9.55
2023-04-23T15:41:51.477Z,8.52
2023-04-23T15:44:37.913Z,11.90
2023-04-23T15:47:24.048Z,12.25
2023-04-23T15:50:13.622Z,11.55
2023-04-23T15:53:01.675Z,13.23
2023-04-23T15:55:48.725Z,10.73
2023-04-23T15:58:34.784Z,9.77
2023-04-23T16:01:21.667Z,15.57
2023-04-23T16:04:12.149Z,12.32
2023-04-23T16:06:59.002Z,11.55
2023-04-23T16:09:45.733Z,13.95
2023-04-23T16:12:32.900Z,18.17
2023-04-23T16:15:19.609Z,22.23
2023-04-23T16:18:08.740Z,20.35
2023-04-23T16:20:54.978Z,25.13
2023-04-23T16:23:41.426Z,23.42
2023-04-23T16:26:29.145Z,14.80
2023-04-23T16:29:22.192Z,16.52
2023-04-23T16:32:09.161Z,18.00
2023-04-23T16:34:55.991Z,15.73
2023-04-23T16:37:41.986Z,21.08
2023-04-23T16:40:29.524Z,17.00
2023-04-23T16:43:15.545Z,20.85
2023-04-23T16:46:02.273Z,14.43
2023-04-23T16:48:48.270Z,11.73
2023-04-23T16:51:35.027Z,11.88
2023-04-23T16:54:21.476Z,15.25
2023-04-23T16:57:08.225Z,13.07
2023-04-23T16:59:54.570Z,11.48
2023-04-23T17:02:42.906Z,8.95
2023-04-23T17:05:32.232Z,10.02
2023-04-23T17:08:18.589Z,14.88
2023-04-23T17:11:06.616Z,18.00
2023-04-23T17:13:53.857Z,15.05
2023-04-23T17:16:40.188Z,13.65
2023-04-23T17:19:26.368Z,13.35
2023-04-23T17:22:12.931Z,15.02
2023-04-23T17:24:59.115Z,16.77
2023-04-23T17:27:45.619Z,19.50
2023-04-23T17:30:32.479Z,25.60
2023-04-23T17:33:19.750Z,23.92
2023-04-23T17:36:06.293Z,19.02
2023-04-23T17:38:52.346Z,22.52
2023-04-23T17:41:38.806Z,24.77
2023-04-23T17:44:24.980Z,110.22
2023-04-23T17:47:13.447Z,148.32
2023-04-23T17:49:59.853Z,162.85
2023-04-23T17:52:46.895Z,153.88
2023-04-23T17:55:33.648Z,73.55
2023-04-23T17:58:21.742Z,104.68
2023-04-23T18:01:10.092Z,93.63
2023-04-23T18:03:56.506Z,123.07
2023-04-23T18:06:42.912Z,97.00
2023-04-23T18:09:29.109Z,35.08
2023-04-23T18:12:15.179Z,31.13
2023-04-23T18:15:01.781Z,167.93
2023-04-23T18:17:48.604Z,166.55
2023-04-23T18:20:38.707Z,208.55
2023-04-23T18:23:26.505Z,264.40
2023-04-23T18:26:13.509Z,240.15
2023-04-23T18:28:59.131Z,165.43
2023-04-23T18:31:45.455Z,115.00
2023-04-23T18:34:35.821Z,94.70
2023-04-23T18:37:33.133Z,55.58
2023-04-23T18:40:19.490Z,52.72
2023-04-23T18:43:05.797Z,47.45
2023-04-23T18:45:51.987Z,43.85
2023-04-23T18:48:47.572Z,52.47
2023-04-23T18:51:38.402Z,59.15
2023-04-23T18:54:26.539Z,41.17
2023-04-23T18:57:12.539Z,35.50
2023-04-23T18:59:59.018Z,30.95
2023-04-23T19:02:45.008Z,30.58
2023-04-23T19:05:33.328Z,27.55
2023-04-23T19:08:19.729Z,31.30
2023-04-23T19:11:06.399Z,42.20
2023-04-23T19:13:52.141Z,51.00
2023-04-23T19:16:41.212Z,39.92
2023-04-23T19:19:30.992Z,57.78
2023-04-23T19:22:17.908Z,33.78
2023-04-23T19:25:05.098Z,29.90
2023-04-23T19:27:51.568Z,23.92
2023-04-23T19:30:38.139Z,25.58
2023-04-23T19:33:24.428Z,25.45
2023-04-23T19:36:10.771Z,28.88
2023-04-23T19:38:57.150Z,35.33
2023-04-23T19:41:43.289Z,34.17
2023-04-23T19:44:29.618Z,25.60
2023-04-23T19:47:19.126Z,31.05
2023-04-23T19:50:07.332Z,31.02
2023-04-23T19:52:53.867Z,28.63
2023-04-23T19:55:40.480Z,31.85
2023-04-23T19:58:26.964Z,30.25
2023-04-23T20:01:15.701Z,34.00
2023-04-23T20:04:02.775Z,33.22
2023-04-23T20:06:49.903Z,37.30
2023-04-23T20:09:35.921Z,39.33
2023-04-23T20:12:24.739Z,35.60
2023-04-23T20:15:11.181Z,33.75
2023-04-23T20:17:58.060Z,35.05
2023-04-23T20:20:45.769Z,33.95
2023-04-23T20:23:32.333Z,35.28
2023-04-23T20:26:21.954Z,45.03
2023-04-23T20:29:10.242Z,41.15
2023-04-23T20:31:56.738Z,35.08
2023-04-23T20:34:42.749Z,29.63
2023-04-23T20:37:28.955Z,27.65
2023-04-23T20:40:16.417Z,33.70
2023-04-23T20:43:04.988Z,31.92
2023-04-23T20:45:52.160Z,35.65
2023-04-23T20:48:39.463Z,32.03
2023-04-23T20:51:25.946Z,28.02
2023-04-23T20:54:11.776Z,24.88
2023-04-23T20:56:58.779Z,29.85
2023-04-23T20:59:44.996Z,32.45
2023-04-23T21:02:32.447Z,40.47
2023-04-23T21:05:18.654Z,66.80
2023-04-23T21:08:05.544Z,56.88
2023-04-23T21:10:52.478Z,59.13
2023-04-23T21:13:39.200Z,36.60
2023-04-23T21:16:24.855Z,32.70
2023-04-23T21:19:10.928Z,24.08
2023-04-23T21:21:57.064Z,28.98
2023-04-23T21:24:43.591Z,25.25
2023-04-23T21:27:31.132Z,25.30
2023-04-23T21:30:23.782Z,24.85
2023-04-23T21:33:09.820Z,34.40
2023-04-23T21:35:56.294Z,35.38
2023-04-23T21:38:42.514Z,31.98
2023-04-23T21:41:29.313Z,30.05
2023-04-23T21:44:15.155Z,31.05
2023-04-23T21:47:02.933Z,28.23
2023-04-23T21:49:49.229Z,32.38
2023-04-23T21:52:35.543Z,28.40
2023-04-23T21:55:22.266Z,26.05
2023-04-23T21:58:17.029Z,26.88
2023-04-23T22:01:04.088Z,27.30
2023-04-23T22:03:51.403Z,28.80
2023-04-23T22:06:37.168Z,28.42
2023-04-23T22:09:23.816Z,30.67
2023-04-23T22:12:10.094Z,29.92
2023-04-23T22:14:56.373Z,31.75
2023-04-23T22:17:46.431Z,34.08
2023-04-23T22:20:32.730Z,32.35
2023-04-23T22:23:19.368Z,32.60
2023-04-23T22:26:06.696Z,43.70
2023-04-23T22:28:52.578Z,52.40
2023-04-23T22:31:38.710Z,51.20
2023-04-23T22:34:25.660Z,45.47
2023-04-23T22:37:12.058Z,38.80
2023-04-23T22:39:58.076Z,39.13
2023-04-23T22:42:44.546Z,38.28
2023-04-23T22:45:30.606Z,42.03
2023-04-23T22:48:18.112Z,41.83
2023-04-23T22:51:05.284Z,36.28
2023-04-23T22:53:51.994Z,47.65
2023-04-23T22:56:38.114Z,46.72
2023-04-23T22:59:26.376Z,55.85
2023-04-23T23:02:12.432Z,49.08
2023-04-23T23:04:59.022Z,37.47
2023-04-23T23:07:45.118Z,35.47
2023-04-23T23:10:31.842Z,29.25
2023-04-23T23:13:17.609Z,31.85
2023-04-23T23:16:06.069Z,34.90
2023-04-23T23:18:52.118Z,29.20
2023-04-23T23:21:38.067Z,30.60
2023-04-23T23:24:24.194Z,28.27
2023-04-23T23:27:10.348Z,31.90
2023-04-23T23:29:57.962Z,33.65
2023-04-23T23:32:44.623Z,33.70
2023-04-23T23:35:30.541Z,32.00
2023-04-23T23:38:16.984Z,32.35
2023-04-23T23:41:03.219Z,28.27
2023-04-23T23:43:49.833Z,30.88
2023-04-23T23:46:35.826Z,24.90
2023-04-23T23:49:22.456Z,24.88
2023-04-23T23:52:08.397Z,24.63
2023-04-23T23:54:54.672Z,25.08
2023-04-23T23:57:41.302Z,22.95
